Naikai2 — JD2433 — position and weather

sailwx.info

Track history (hours):
 
Tides and Currents Weather Stations Pressure Air Temp Water Temp Dewpoint Dewpoint Depression Visibility Wind Speed Wind Dir Waves Ship Positions

Naikai2

Last reported at 2017-Feb-21 23:33 UTC. Time now 2017-Feb-22 13:16 UTC.
Position N 34°27' E 134°58'.

Length 28 m; draft 2.2 m.

Type: Other ship. MMSI: 431000283.

Date/timePositionNaut miles runAvg speedWind from/ knotsBaromVisibWave heightAir tempDewpointWater temp
2017-Feb-21 23:33N 34°27' E 134°58'1010.4
2017-Feb-21 22:33N 34°37' E 134°59'9 9.3
2017-Feb-21 21:33N 34°33' E 135°08'1010.0
2017-Feb-21 20:30N 34°23' E 135°03'1111.9
2017-Feb-21 19:33N 34°12' E 134°59'15 2.0
2017-Feb-21 12:08N 34°26' E 135°03'813.7
2017-Feb-21 11:33N 34°34' E 135°07'9 2.0
2017-Feb-21 07:07N 34°37' E 134°57'4 7.6
2017-Feb-21 06:33N 34°37' E 135°02'7 7.4
2017-Feb-21 05:33N 34°37' E 135°11'9 8.8
2017-Feb-21 04:33N 34°35' E 135°21'2 1.5
2017-Feb-21 03:27N 34°33' E 135°23'6 6.6
2017-Feb-21 02:33N 34°36' E 135°16'6 0.2
2017-Feb-20 03:05N 34°39' E 135°10'4 7.0
2017-Feb-20 02:33N 34°42' E 135°13'9 9.2
2017-Feb-20 01:34N 34°37' E 135°04'2 1.9
2017-Feb-20 00:33N 34°35' E 135°05'3 2.5
2017-Feb-19 23:33N 34°38' E 135°03'0 0.0
2017-Feb-19 22:33N 34°38' E 135°03'0 0.0
2017-Feb-19 21:33N 34°38' E 135°03'0 0.1
2017-Feb-19 20:33N 34°37' E 135°03'2 1.5
2017-Feb-19 19:33N 34°36' E 135°04'6 6.0
2017-Feb-19 18:33N 34°39' E 135°10'2 0.2
2017-Feb-19 06:19N 34°38' E 135°08'1011.0
2017-Feb-19 05:24N 34°36' E 134°56'4 4.7
2017-Feb-19 04:33N 34°36' E 135°01'13 5.1
2017-Feb-19 02:04N 34°24' E 135°03'713.2
2017-Feb-19 01:33N 34°27' E 135°09'1212.0
2017-Feb-19 00:33N 34°33' E 135°22'2 2.2
2017-Feb-18 23:33N 34°33' E 135°19'10 9.6
2017-Feb-18 22:34N 34°39' E 135°10'1 0.1
2017-Feb-18 02:33N 34°38' E 135°11'1211.9
2017-Feb-18 01:32N 34°33' E 135°24'4 4.4
2017-Feb-18 00:33N 34°33' E 135°19'1313.1
2017-Feb-17 23:33N 34°25' E 135°07'1312.7
2017-Feb-17 22:33N 34°14' E 134°59'10 7.7
2017-Feb-17 21:15N 34°24' E 135°01'1115.3
2017-Feb-17 20:33N 34°33' E 135°07'5 0.4
2017-Feb-17 06:34N 34°38' E 135°09'9 7.3
2017-Feb-17 05:20N 34°37' E 134°58'1012.4
2017-Feb-17 04:33N 34°38' E 135°10'1 0.7
2017-Feb-17 03:33N 34°39' E 135°10'0 0.2
2017-Feb-17 00:32N 34°39' E 135°10'5 4.8
2017-Feb-16 23:33N 34°37' E 135°05'1 1.5
2017-Feb-16 22:33N 34°36' E 135°04'6 5.9
2017-Feb-16 21:33N 34°39' E 135°10'7 0.7
2017-Feb-16 11:33N 34°32' E 135°07'8 3.7
2017-Feb-16 09:21N 34°25' E 135°03'1113.9
2017-Feb-16 08:33N 34°31' E 135°13'9 9.4
2017-Feb-16 07:33N 34°33' E 135°25'1 1.4
2017-Feb-16 06:32N 34°34' E 135°23'1212.1
2017-Feb-16 05:34N 34°39' E 135°10'1 0.0
2017-Feb-15 03:33N 34°40' E 135°11'1212.0
2017-Feb-15 02:33N 34°34' E 135°23'2 1.7
2017-Feb-15 01:31N 34°33' E 135°21'1111.7
2017-Feb-15 00:32N 34°27' E 135°10'1513.7
2017-Feb-14 23:28N 34°15' E 134°60'3 3.2
2017-Feb-14 22:33N 34°12' E 135°00'1211.9
2017-Feb-14 21:33N 34°24' E 135°01'1514.6
2017-Feb-14 20:33N 34°37' E 135°09'2 0.1
2017-Feb-14 02:04N 34°38' E 135°10'612.5
2017-Feb-14 01:33N 34°37' E 135°02'4 3.6
2017-Feb-14 00:33N 34°35' E 135°05'5 5.3
2017-Feb-13 23:33N 34°39' E 135°10'5 0.1
2017-Feb-12 02:33N 34°35' E 135°05'4 3.7
2017-Feb-12 01:29N 34°37' E 135°01'7 8.0
2017-Feb-12 00:33N 34°39' E 135°10'  
Track history (hours):
 
Tides and Currents Weather Stations Pressure Air Temp Water Temp Dewpoint Dewpoint Depression Visibility Wind Speed Wind Dir Waves Ship Positions

Naikai2

Last reported at 2017-Feb-21 23:33 UTC. Time now 2017-Feb-22 13:16 UTC.
Position N 34°27' E 134°58'.

Length 28 m; draft 2.2 m.

Type: Other ship. MMSI: 431000283.

Date/timePositionNaut miles runAvg speedWind from/ knotsBaromVisibWave heightAir tempDewpointWater temp
2017-Feb-21 23:33N 34°27' E 134°58'1010.4
2017-Feb-21 22:33N 34°37' E 134°59'9 9.3
2017-Feb-21 21:33N 34°33' E 135°08'1010.0
2017-Feb-21 20:30N 34°23' E 135°03'1111.9
2017-Feb-21 19:33N 34°12' E 134°59'15 2.0
2017-Feb-21 12:08N 34°26' E 135°03'813.7
2017-Feb-21 11:33N 34°34' E 135°07'9 2.0
2017-Feb-21 07:07N 34°37' E 134°57'4 7.6
2017-Feb-21 06:33N 34°37' E 135°02'7 7.4
2017-Feb-21 05:33N 34°37' E 135°11'9 8.8
2017-Feb-21 04:33N 34°35' E 135°21'2 1.5
2017-Feb-21 03:27N 34°33' E 135°23'6 6.6
2017-Feb-21 02:33N 34°36' E 135°16'6 0.2
2017-Feb-20 03:05N 34°39' E 135°10'4 7.0
2017-Feb-20 02:33N 34°42' E 135°13'9 9.2
2017-Feb-20 01:34N 34°37' E 135°04'2 1.9
2017-Feb-20 00:33N 34°35' E 135°05'3 2.5
2017-Feb-19 23:33N 34°38' E 135°03'0 0.0
2017-Feb-19 22:33N 34°38' E 135°03'0 0.0
2017-Feb-19 21:33N 34°38' E 135°03'0 0.1
2017-Feb-19 20:33N 34°37' E 135°03'2 1.5
2017-Feb-19 19:33N 34°36' E 135°04'6 6.0
2017-Feb-19 18:33N 34°39' E 135°10'2 0.2
2017-Feb-19 06:19N 34°38' E 135°08'1011.0
2017-Feb-19 05:24N 34°36' E 134°56'4 4.7
2017-Feb-19 04:33N 34°36' E 135°01'13 5.1
2017-Feb-19 02:04N 34°24' E 135°03'713.2
2017-Feb-19 01:33N 34°27' E 135°09'1212.0
2017-Feb-19 00:33N 34°33' E 135°22'2 2.2
2017-Feb-18 23:33N 34°33' E 135°19'10 9.6
2017-Feb-18 22:34N 34°39' E 135°10'1 0.1
2017-Feb-18 02:33N 34°38' E 135°11'1211.9
2017-Feb-18 01:32N 34°33' E 135°24'4 4.4
2017-Feb-18 00:33N 34°33' E 135°19'1313.1
2017-Feb-17 23:33N 34°25' E 135°07'1312.7
2017-Feb-17 22:33N 34°14' E 134°59'10 7.7
2017-Feb-17 21:15N 34°24' E 135°01'1115.3
2017-Feb-17 20:33N 34°33' E 135°07'5 0.4
2017-Feb-17 06:34N 34°38' E 135°09'9 7.3
2017-Feb-17 05:20N 34°37' E 134°58'1012.4
2017-Feb-17 04:33N 34°38' E 135°10'1 0.7
2017-Feb-17 03:33N 34°39' E 135°10'0 0.2
2017-Feb-17 00:32N 34°39' E 135°10'5 4.8
2017-Feb-16 23:33N 34°37' E 135°05'1 1.5
2017-Feb-16 22:33N 34°36' E 135°04'6 5.9
2017-Feb-16 21:33N 34°39' E 135°10'7 0.7
2017-Feb-16 11:33N 34°32' E 135°07'8 3.7
2017-Feb-16 09:21N 34°25' E 135°03'1113.9
2017-Feb-16 08:33N 34°31' E 135°13'9 9.4
2017-Feb-16 07:33N 34°33' E 135°25'1 1.4
2017-Feb-16 06:32N 34°34' E 135°23'1212.1
2017-Feb-16 05:34N 34°39' E 135°10'1 0.0
2017-Feb-15 03:33N 34°40' E 135°11'1212.0
2017-Feb-15 02:33N 34°34' E 135°23'2 1.7
2017-Feb-15 01:31N 34°33' E 135°21'1111.7
2017-Feb-15 00:32N 34°27' E 135°10'1513.7
2017-Feb-14 23:28N 34°15' E 134°60'3 3.2
2017-Feb-14 22:33N 34°12' E 135°00'1211.9
2017-Feb-14 21:33N 34°24' E 135°01'1514.6
2017-Feb-14 20:33N 34°37' E 135°09'2 0.1
2017-Feb-14 02:04N 34°38' E 135°10'612.5
2017-Feb-14 01:33N 34°37' E 135°02'4 3.6
2017-Feb-14 00:33N 34°35' E 135°05'5 5.3
2017-Feb-13 23:33N 34°39' E 135°10'5 0.1
2017-Feb-12 02:33N 34°35' E 135°05'4 3.7
2017-Feb-12 01:29N 34°37' E 135°01'7 8.0
2017-Feb-12 00:33N 34°39' E 135°10'  

Dump ship's entire track history